createdAt,value
2022-12-29T00:02:19.306Z,45.26
2022-12-29T00:04:52.025Z,45.70
2022-12-29T00:07:24.552Z,45.37
2022-12-29T00:09:57.089Z,45.71
2022-12-29T00:12:49.743Z,46.16
2022-12-29T00:15:41.015Z,46.37
2022-12-29T00:18:13.843Z,46.07
2022-12-29T00:21:05.292Z,45.67
2022-12-29T00:23:56.508Z,45.50
2022-12-29T00:26:47.751Z,45.58
2022-12-29T00:29:39.244Z,45.62
2022-12-29T00:32:34.641Z,45.74
2022-12-29T00:35:14.297Z,45.89
2022-12-29T00:38:07.537Z,45.90
2022-12-29T00:40:58.671Z,45.56
2022-12-29T00:43:49.749Z,45.58
2022-12-29T00:46:22.474Z,45.89
2022-12-29T00:49:14.022Z,45.70
2022-12-29T00:51:47.503Z,45.79
2022-12-29T00:54:21.445Z,45.83
2022-12-29T00:56:54.999Z,45.54
2022-12-29T00:59:27.768Z,45.85
2022-12-29T01:02:00.570Z,45.66
2022-12-29T01:04:33.866Z,45.87
2022-12-29T01:07:06.542Z,45.91
2022-12-29T01:09:58.569Z,46.03
2022-12-29T01:12:43.418Z,46.05
2022-12-29T01:15:16.395Z,46.03
2022-12-29T01:17:48.981Z,46.08
2022-12-29T01:20:22.000Z,45.73
2022-12-29T01:22:54.691Z,45.99
2022-12-29T01:25:27.399Z,46.29
2022-12-29T01:28:00.221Z,45.64
2022-12-29T01:30:33.842Z,46.45
2022-12-29T01:33:06.405Z,46.04
2022-12-29T01:35:40.462Z,46.39
2022-12-29T01:38:13.225Z,45.89
2022-12-29T01:40:47.732Z,45.87
2022-12-29T01:43:20.488Z,46.30
2022-12-29T01:45:55.803Z,45.96
2022-12-29T01:48:28.549Z,46.44
2022-12-29T01:51:01.193Z,45.72
2022-12-29T01:53:36.442Z,45.80
2022-12-29T01:56:16.185Z,46.95
2022-12-29T01:59:01.591Z,45.80
2022-12-29T02:01:34.448Z,45.86
2022-12-29T02:04:10.763Z,45.92
2022-12-29T02:06:54.172Z,46.68
2022-12-29T02:09:26.970Z,46.08
2022-12-29T02:12:01.103Z,46.22
2022-12-29T02:14:33.525Z,45.48
2022-12-29T02:17:59.509Z,46.44
2022-12-29T02:21:17.738Z,46.17
2022-12-29T02:24:29.973Z,46.74
2022-12-29T02:27:25.434Z,46.79
2022-12-29T02:30:41.148Z,45.81
2022-12-29T02:33:36.354Z,46.30
2022-12-29T02:36:30.367Z,45.71
2022-12-29T02:39:30.518Z,45.96
2022-12-29T02:42:36.738Z,46.85
2022-12-29T02:45:34.783Z,46.88
2022-12-29T02:48:25.371Z,46.41
2022-12-29T02:51:13.918Z,46.66
2022-12-29T02:54:06.166Z,46.05
2022-12-29T02:56:38.727Z,46.73
2022-12-29T02:59:13.630Z,46.49
2022-12-29T03:02:32.953Z,46.67
2022-12-29T03:05:52.679Z,46.92
2022-12-29T03:08:40.999Z,46.84
2022-12-29T03:11:34.343Z,46.57
2022-12-29T03:14:42.911Z,46.28
2022-12-29T03:18:03.042Z,46.37
2022-12-29T03:20:55.926Z,46.13
2022-12-29T03:23:31.511Z,46.83
2022-12-29T03:26:12.041Z,46.13
2022-12-29T03:28:54.103Z,46.04
2022-12-29T03:31:27.538Z,46.33
2022-12-29T03:34:00.977Z,46.09
2022-12-29T03:37:00.125Z,46.06
2022-12-29T03:39:32.961Z,46.40
2022-12-29T03:42:18.599Z,46.53
2022-12-29T03:44:57.225Z,46.83
2022-12-29T03:47:29.936Z,47.10
2022-12-29T03:50:02.653Z,46.48
2022-12-29T03:52:35.548Z,47.12
2022-12-29T03:55:08.916Z,46.78
2022-12-29T03:57:41.622Z,46.47
2022-12-29T04:00:14.831Z,46.89
2022-12-29T04:02:48.063Z,47.01
2022-12-29T04:05:20.828Z,46.38
2022-12-29T04:07:53.548Z,46.29
2022-12-29T04:10:26.203Z,46.49
2022-12-29T04:12:58.747Z,46.79
2022-12-29T04:15:31.441Z,47.39
2022-12-29T04:18:04.229Z,47.03
2022-12-29T04:20:55.570Z,46.57
2022-12-29T04:23:29.862Z,47.08
2022-12-29T04:26:02.804Z,46.82
2022-12-29T04:28:36.227Z,46.41
2022-12-29T04:31:09.134Z,46.34
2022-12-29T04:33:41.857Z,46.35
2022-12-29T04:36:14.582Z,47.05
2022-12-29T04:38:47.260Z,46.60
2022-12-29T04:41:20.073Z,47.10
2022-12-29T04:43:52.795Z,47.35
2022-12-29T04:46:25.572Z,46.28
2022-12-29T04:48:58.397Z,46.57
2022-12-29T04:51:31.018Z,46.43
2022-12-29T04:54:03.863Z,46.54
2022-12-29T04:56:36.382Z,46.75
2022-12-29T04:59:09.077Z,46.87
2022-12-29T05:01:41.674Z,47.10
2022-12-29T05:04:14.637Z,47.05
2022-12-29T05:06:47.317Z,46.98
2022-12-29T05:09:20.071Z,46.53
2022-12-29T05:11:52.689Z,47.03
2022-12-29T05:14:25.418Z,46.88
2022-12-29T05:16:58.082Z,46.34
2022-12-29T05:19:30.677Z,46.23
2022-12-29T05:22:03.288Z,47.14
2022-12-29T05:24:35.983Z,46.70
2022-12-29T05:27:08.503Z,46.25
2022-12-29T05:29:41.080Z,46.70
2022-12-29T05:32:13.632Z,46.79
2022-12-29T05:34:47.328Z,46.69
2022-12-29T05:37:20.063Z,46.90
2022-12-29T05:39:52.619Z,46.55
2022-12-29T05:42:25.321Z,46.83
2022-12-29T05:44:57.920Z,46.63
2022-12-29T05:47:30.565Z,47.04
2022-12-29T05:50:03.516Z,46.32
2022-12-29T05:52:36.083Z,46.57
2022-12-29T05:55:09.260Z,46.42
2022-12-29T05:57:41.833Z,46.75
2022-12-29T06:00:15.311Z,46.29
2022-12-29T06:02:48.196Z,46.66
2022-12-29T06:05:20.864Z,46.63
2022-12-29T06:07:53.448Z,46.98
2022-12-29T06:10:26.355Z,46.15
2022-12-29T06:12:59.051Z,47.16
2022-12-29T06:15:31.991Z,46.71
2022-12-29T06:18:04.640Z,46.94
2022-12-29T06:20:37.255Z,46.67
2022-12-29T06:23:09.874Z,46.56
2022-12-29T06:25:42.401Z,47.00
2022-12-29T06:28:15.111Z,46.87
2022-12-29T06:30:48.945Z,46.70
2022-12-29T06:33:21.945Z,46.62
2022-12-29T06:35:54.929Z,46.65
2022-12-29T06:38:27.568Z,47.03
2022-12-29T06:41:00.286Z,46.20
2022-12-29T06:43:33.431Z,46.51
2022-12-29T06:46:07.060Z,46.54
2022-12-29T06:48:39.629Z,46.54
2022-12-29T06:51:12.190Z,46.18
2022-12-29T06:53:44.709Z,46.24
2022-12-29T06:56:17.352Z,46.65
2022-12-29T06:58:50.258Z,46.63
2022-12-29T07:01:23.553Z,46.45
2022-12-29T07:03:56.275Z,46.69
2022-12-29T07:06:28.905Z,46.26
2022-12-29T07:09:01.546Z,46.04
2022-12-29T07:11:34.413Z,45.61
2022-12-29T07:14:06.960Z,45.85
2022-12-29T07:16:40.396Z,45.79
2022-12-29T07:19:12.931Z,45.71
2022-12-29T07:21:45.544Z,45.43
2022-12-29T07:24:18.467Z,45.31
2022-12-29T07:26:51.209Z,45.27
2022-12-29T07:29:23.875Z,45.77
2022-12-29T07:31:56.526Z,45.32
2022-12-29T07:34:29.096Z,45.39
2022-12-29T07:37:01.982Z,45.21
2022-12-29T07:39:34.590Z,45.02
2022-12-29T07:42:07.306Z,45.37
2022-12-29T07:44:39.929Z,45.31
2022-12-29T07:47:12.731Z,45.16
2022-12-29T07:49:45.308Z,45.12
2022-12-29T07:52:17.919Z,45.60
2022-12-29T07:54:50.491Z,45.08
2022-12-29T07:57:26.552Z,45.00
2022-12-29T08:00:04.956Z,44.76
2022-12-29T08:02:37.620Z,44.91
2022-12-29T08:05:10.173Z,44.98
2022-12-29T08:07:47.216Z,45.34
2022-12-29T08:10:19.839Z,44.51
2022-12-29T08:12:52.673Z,44.89
2022-12-29T08:15:30.497Z,44.24
2022-12-29T08:18:05.050Z,45.18
2022-12-29T08:20:37.774Z,44.62
2022-12-29T08:23:10.411Z,44.65
2022-12-29T08:25:43.066Z,44.55
2022-12-29T08:28:15.604Z,44.88
2022-12-29T08:30:48.291Z,44.83
2022-12-29T08:33:21.126Z,44.97
2022-12-29T08:35:53.784Z,44.80
2022-12-29T08:38:26.427Z,44.86
2022-12-29T08:41:02.045Z,45.23
2022-12-29T08:43:34.888Z,44.57
2022-12-29T08:46:07.620Z,44.35
2022-12-29T08:48:40.335Z,44.83
2022-12-29T08:51:13.411Z,44.20
2022-12-29T08:53:46.145Z,44.53
2022-12-29T08:56:19.189Z,44.59
2022-12-29T08:58:53.782Z,44.88
2022-12-29T09:01:26.723Z,44.51
2022-12-29T09:04:16.458Z,44.71
2022-12-29T09:06:50.727Z,44.60
2022-12-29T09:09:23.528Z,44.75
2022-12-29T09:11:56.031Z,44.66
2022-12-29T09:14:28.654Z,44.26
2022-12-29T09:17:19.790Z,44.31
2022-12-29T09:19:52.487Z,44.54
2022-12-29T09:22:25.029Z,44.43
2022-12-29T09:24:57.677Z,44.14
2022-12-29T09:27:31.036Z,43.91
2022-12-29T09:30:07.524Z,44.17
2022-12-29T09:32:44.823Z,44.76
2022-12-29T09:35:18.274Z,43.85
2022-12-29T09:37:50.953Z,44.59
2022-12-29T09:40:32.480Z,44.42
2022-12-29T09:43:30.008Z,44.54
2022-12-29T09:46:30.814Z,44.53
2022-12-29T09:49:20.885Z,44.56
2022-12-29T09:52:00.895Z,44.46
2022-12-29T09:55:03.254Z,44.56
2022-12-29T09:58:30.315Z,44.40
2022-12-29T10:01:08.760Z,43.91
2022-12-29T10:03:57.376Z,44.09
2022-12-29T10:10:12.900Z,44.29
2022-12-29T10:13:10.837Z,44.01
2022-12-29T10:16:19.042Z,44.39
2022-12-29T10:19:17.520Z,44.28
2022-12-29T10:22:14.387Z,44.38
2022-12-29T10:24:53.197Z,44.27
2022-12-29T10:27:25.789Z,43.81
2022-12-29T10:30:02.108Z,44.19
2022-12-29T10:32:56.326Z,44.42
2022-12-29T10:35:38.466Z,43.99
2022-12-29T10:38:28.840Z,44.19
2022-12-29T10:41:26.768Z,44.70
2022-12-29T10:44:01.901Z,44.17
2022-12-29T10:46:38.277Z,44.12
2022-12-29T10:49:21.827Z,44.38
2022-12-29T10:52:03.146Z,44.44
2022-12-29T10:54:55.625Z,44.51
2022-12-29T10:57:34.799Z,44.45
2022-12-29T11:00:17.406Z,44.74
2022-12-29T11:03:22.591Z,44.28
2022-12-29T11:06:28.331Z,43.83
2022-12-29T11:09:12.089Z,44.35
2022-12-29T11:11:44.702Z,44.24
2022-12-29T11:14:28.265Z,44.15
2022-12-29T11:17:04.967Z,44.57
2022-12-29T11:19:41.139Z,44.22
2022-12-29T11:22:29.399Z,44.28
2022-12-29T11:25:13.753Z,44.06
2022-12-29T11:28:15.013Z,44.08
2022-12-29T11:31:01.540Z,44.39
2022-12-29T11:33:39.275Z,44.06
2022-12-29T11:36:23.280Z,44.28
2022-12-29T11:38:56.903Z,44.04
2022-12-29T11:41:32.831Z,43.68
2022-12-29T11:44:07.032Z,43.98
2022-12-29T11:46:39.731Z,44.10
2022-12-29T11:49:27.338Z,43.76
2022-12-29T11:52:01.630Z,44.28
2022-12-29T11:54:39.347Z,43.96
2022-12-29T11:57:17.220Z,44.23
2022-12-29T12:00:00.994Z,44.56
2022-12-29T12:03:01.104Z,43.88
2022-12-29T12:05:55.593Z,43.89
2022-12-29T12:08:50.065Z,44.04
2022-12-29T12:11:37.323Z,43.86
2022-12-29T12:14:26.520Z,43.98
2022-12-29T12:17:29.034Z,44.07
2022-12-29T12:20:19.795Z,43.76
2022-12-29T12:23:13.620Z,44.09
2022-12-29T12:26:03.298Z,43.84
2022-12-29T12:29:10.985Z,44.39
2022-12-29T12:32:00.203Z,44.11
2022-12-29T12:34:44.384Z,44.02
2022-12-29T12:37:38.723Z,43.90
2022-12-29T12:40:50.091Z,43.52
2022-12-29T12:43:42.649Z,43.86
2022-12-29T12:46:49.092Z,43.96
2022-12-29T12:50:15.511Z,43.75
2022-12-29T12:53:41.254Z,43.87
2022-12-29T12:56:48.472Z,43.67
2022-12-29T12:59:41.391Z,43.30
2022-12-29T13:02:32.835Z,43.70
2022-12-29T13:05:56.831Z,43.77
2022-12-29T13:09:07.556Z,43.94
2022-12-29T13:12:28.009Z,43.88
2022-12-29T13:15:43.522Z,43.79
2022-12-29T13:18:38.163Z,43.67
2022-12-29T13:21:58.615Z,43.99
2022-12-29T13:24:57.737Z,43.47
2022-12-29T13:27:43.517Z,44.05
2022-12-29T13:30:23.183Z,44.10
2022-12-29T13:33:21.843Z,43.73
2022-12-29T13:36:23.375Z,43.66
2022-12-29T13:39:10.208Z,43.82
2022-12-29T13:41:51.866Z,44.22
2022-12-29T13:45:08.283Z,43.76
2022-12-29T13:47:54.675Z,43.89
2022-12-29T13:50:34.731Z,44.30
2022-12-29T13:53:55.391Z,43.87
2022-12-29T13:57:03.020Z,44.25
2022-12-29T14:00:27.715Z,44.53
2022-12-29T14:03:46.127Z,44.24
2022-12-29T14:06:41.553Z,44.31
2022-12-29T14:09:52.572Z,43.96
2022-12-29T14:12:41.862Z,44.22
2022-12-29T14:15:22.215Z,43.92
2022-12-29T14:18:11.760Z,44.29
2022-12-29T14:21:23.834Z,44.25
2022-12-29T14:24:35.817Z,44.37
2022-12-29T14:27:15.546Z,44.19
2022-12-29T14:29:52.754Z,44.04
2022-12-29T14:32:25.317Z,44.40
2022-12-29T14:35:00.854Z,44.10
2022-12-29T14:37:35.737Z,43.74
2022-12-29T14:40:27.957Z,44.34
2022-12-29T14:43:00.625Z,44.20
2022-12-29T14:45:38.371Z,44.15
2022-12-29T14:48:34.435Z,43.88
2022-12-29T14:51:36.665Z,44.50
2022-12-29T14:54:34.026Z,44.56
2022-12-29T14:57:18.459Z,44.35
2022-12-29T14:59:57.095Z,43.75
2022-12-29T15:02:39.703Z,44.45
2022-12-29T15:05:31.017Z,44.71
2022-12-29T15:08:06.971Z,44.56
2022-12-29T15:10:49.087Z,44.30
2022-12-29T15:13:35.442Z,44.70
2022-12-29T15:16:32.651Z,44.70
2022-12-29T15:19:21.533Z,44.22
2022-12-29T15:21:57.434Z,43.99
2022-12-29T15:24:30.256Z,44.48
2022-12-29T15:27:06.102Z,44.46
2022-12-29T15:29:45.091Z,44.63
2022-12-29T15:32:17.919Z,44.24
2022-12-29T15:34:56.633Z,44.23
2022-12-29T15:37:37.110Z,44.45
2022-12-29T15:40:26.386Z,44.76
2022-12-29T15:43:33.583Z,44.86
2022-12-29T15:46:06.527Z,44.18
2022-12-29T15:48:40.972Z,44.80
2022-12-29T15:51:24.017Z,44.88
2022-12-29T15:53:57.559Z,44.54
2022-12-29T15:56:33.528Z,44.42
2022-12-29T15:59:08.244Z,44.44
2022-12-29T16:01:43.776Z,44.21
2022-12-29T16:04:16.699Z,44.56
2022-12-29T16:07:02.948Z,44.68
2022-12-29T16:09:45.945Z,45.01
2022-12-29T16:12:23.778Z,44.23
2022-12-29T16:15:01.355Z,44.57
2022-12-29T16:17:51.554Z,44.59
2022-12-29T16:20:39.170Z,44.64
2022-12-29T16:23:25.743Z,44.49
2022-12-29T16:25:58.924Z,44.73
2022-12-29T16:28:49.178Z,44.80
2022-12-29T16:31:23.593Z,45.00
2022-12-29T16:33:57.874Z,44.42
2022-12-29T16:36:52.959Z,45.08
2022-12-29T16:39:30.453Z,44.82
2022-12-29T16:42:37.784Z,44.92
2022-12-29T16:45:25.413Z,44.92
2022-12-29T16:48:06.971Z,45.13
2022-12-29T16:50:43.796Z,44.72
2022-12-29T16:53:26.317Z,45.08
2022-12-29T16:56:15.630Z,44.79
2022-12-29T16:58:54.570Z,45.00
2022-12-29T17:01:27.401Z,44.69
2022-12-29T17:04:08.099Z,44.85
2022-12-29T17:06:41.507Z,44.81
2022-12-29T17:09:19.235Z,44.97
2022-12-29T17:12:11.748Z,45.38
2022-12-29T17:14:52.405Z,45.23
2022-12-29T17:17:36.048Z,45.14
2022-12-29T17:20:26.983Z,45.74
2022-12-29T17:23:00.308Z,45.23
2022-12-29T17:25:37.584Z,45.07
2022-12-29T17:28:30.606Z,45.20
2022-12-29T17:31:07.431Z,45.29
2022-12-29T17:33:42.705Z,45.22
2022-12-29T17:36:16.554Z,45.06
2022-12-29T17:38:49.418Z,45.16
2022-12-29T17:41:21.925Z,45.35
2022-12-29T17:43:54.695Z,45.07
2022-12-29T17:46:29.097Z,45.01
2022-12-29T17:49:01.858Z,46.02
2022-12-29T17:51:34.555Z,46.55
2022-12-29T17:54:30.010Z,46.51
2022-12-29T17:57:03.882Z,47.49
2022-12-29T17:59:36.478Z,46.63
2022-12-29T18:02:31.597Z,46.43
2022-12-29T18:05:13.902Z,46.53
2022-12-29T18:07:46.548Z,46.67
2022-12-29T18:10:20.841Z,46.49
2022-12-29T18:12:58.688Z,46.50
2022-12-29T18:15:36.550Z,46.18
2022-12-29T18:18:18.141Z,46.17
2022-12-29T18:20:54.982Z,46.38
2022-12-29T18:23:35.414Z,46.28
2022-12-29T18:26:27.585Z,46.59
2022-12-29T18:29:00.570Z,46.56
2022-12-29T18:31:35.315Z,45.93
2022-12-29T18:34:15.496Z,46.06
2022-12-29T18:36:48.068Z,45.89
2022-12-29T18:39:24.210Z,46.28
2022-12-29T18:42:01.027Z,45.88
2022-12-29T18:44:34.558Z,46.16
2022-12-29T18:47:07.364Z,45.41
2022-12-29T18:49:39.960Z,46.05
2022-12-29T18:52:13.720Z,45.70
2022-12-29T18:54:46.220Z,46.26
2022-12-29T18:57:18.864Z,45.95
2022-12-29T18:59:51.854Z,45.62
2022-12-29T19:02:25.870Z,45.70
2022-12-29T19:05:06.882Z,45.84
2022-12-29T19:07:40.371Z,46.41
2022-12-29T19:10:13.389Z,46.19
2022-12-29T19:12:46.413Z,45.83
2022-12-29T19:15:31.069Z,45.84
2022-12-29T19:18:43.000Z,45.87
2022-12-29T19:21:02.826Z,46.04
2022-12-29T19:23:35.694Z,46.11
2022-12-29T19:26:29.254Z,46.40
2022-12-29T19:29:03.001Z,46.06
2022-12-29T19:31:38.387Z,45.78
2022-12-29T19:34:15.895Z,45.99
2022-12-29T19:36:48.600Z,46.00
2022-12-29T19:39:21.346Z,45.95
2022-12-29T19:41:57.947Z,45.75
2022-12-29T19:44:33.248Z,46.32
2022-12-29T19:47:05.872Z,46.46
2022-12-29T19:49:39.038Z,46.43
2022-12-29T19:52:11.572Z,45.91
2022-12-29T19:54:44.100Z,45.77
2022-12-29T19:57:16.848Z,46.49
2022-12-29T19:59:50.080Z,46.42
2022-12-29T20:02:30.355Z,45.79
2022-12-29T20:05:03.701Z,45.72
2022-12-29T20:07:36.669Z,45.94
2022-12-29T20:10:09.827Z,46.09
2022-12-29T20:12:42.371Z,45.71
2022-12-29T20:15:15.186Z,46.05
2022-12-29T20:18:13.304Z,45.84
2022-12-29T20:20:40.249Z,45.36
2022-12-29T20:23:12.942Z,45.82
2022-12-29T20:25:47.022Z,46.04
2022-12-29T20:28:20.136Z,44.98
2022-12-29T20:31:05.137Z,45.78
2022-12-29T20:33:37.820Z,45.13
2022-12-29T20:36:18.943Z,45.15
2022-12-29T20:38:53.801Z,44.94
2022-12-29T20:41:27.278Z,45.25
2022-12-29T20:44:00.734Z,44.89
2022-12-29T20:46:39.440Z,45.05
2022-12-29T20:49:16.014Z,44.80
2022-12-29T20:52:05.537Z,45.41
2022-12-29T20:54:39.976Z,44.52
2022-12-29T20:57:13.563Z,44.76
2022-12-29T20:59:46.253Z,44.85
2022-12-29T21:02:24.337Z,44.49
2022-12-29T21:05:22.824Z,44.28
2022-12-29T21:07:50.811Z,44.78
2022-12-29T21:10:23.483Z,44.80
2022-12-29T21:12:56.809Z,44.54
2022-12-29T21:15:30.056Z,44.14
2022-12-29T21:18:02.707Z,44.54
2022-12-29T21:20:35.335Z,44.54
2022-12-29T21:23:08.032Z,44.87
2022-12-29T21:25:44.472Z,44.96
2022-12-29T21:28:17.046Z,44.54
2022-12-29T21:30:51.164Z,44.39
2022-12-29T21:33:23.617Z,44.75
2022-12-29T21:35:56.097Z,43.98
2022-12-29T21:38:31.789Z,44.55
2022-12-29T21:41:10.856Z,44.67
2022-12-29T21:44:04.173Z,44.72
2022-12-29T21:46:39.654Z,44.54
2022-12-29T21:49:13.659Z,44.87
2022-12-29T21:51:53.709Z,44.62
2022-12-29T21:54:49.634Z,44.88
2022-12-29T21:57:47.038Z,44.78
2022-12-29T22:00:38.113Z,44.41
2022-12-29T22:03:30.436Z,44.29
2022-12-29T22:06:21.751Z,44.59
2022-12-29T22:09:13.181Z,44.92
2022-12-29T22:12:05.503Z,44.55
2022-12-29T22:14:38.171Z,44.76
2022-12-29T22:17:14.303Z,44.56
2022-12-29T22:19:47.239Z,44.42
2022-12-29T22:22:19.845Z,44.95
2022-12-29T22:24:53.414Z,44.58
2022-12-29T22:27:25.926Z,44.81
2022-12-29T22:29:58.635Z,44.90
2022-12-29T22:32:33.038Z,45.00
2022-12-29T22:35:10.191Z,44.60
2022-12-29T22:37:45.724Z,44.38
2022-12-29T22:40:18.451Z,44.87
2022-12-29T22:42:51.152Z,44.92
2022-12-29T22:45:23.847Z,44.95
2022-12-29T22:47:56.444Z,44.77
2022-12-29T22:50:29.056Z,44.82
2022-12-29T22:53:01.739Z,44.77
2022-12-29T22:55:34.428Z,45.29
2022-12-29T22:58:06.956Z,44.65
2022-12-29T23:00:40.058Z,44.54
2022-12-29T23:03:12.801Z,44.94
2022-12-29T23:05:59.731Z,44.85
2022-12-29T23:08:36.481Z,44.90
2022-12-29T23:11:12.692Z,44.76
2022-12-29T23:13:45.420Z,45.17
2022-12-29T23:16:18.850Z,44.78
2022-12-29T23:18:53.934Z,45.31
2022-12-29T23:21:26.670Z,45.24
2022-12-29T23:24:04.486Z,45.00
2022-12-29T23:26:42.251Z,44.90
2022-12-29T23:29:19.091Z,44.72
2022-12-29T23:31:51.840Z,44.69
2022-12-29T23:34:24.868Z,44.69
2022-12-29T23:36:57.638Z,44.87
2022-12-29T23:39:30.698Z,45.22
2022-12-29T23:42:03.403Z,44.86
2022-12-29T23:44:36.111Z,45.10
2022-12-29T23:47:08.657Z,45.20
2022-12-29T23:49:41.235Z,45.71
2022-12-29T23:52:13.813Z,45.46
2022-12-29T23:54:46.541Z,45.05
2022-12-29T23:57:19.424Z,45.73
2022-12-29T23:59:51.980Z,45.44
